Terminal Aerodrome Forecast
Issued by NWS

Current Version | Previous Version | Text Only | Print | Product List | Glossary Off
Versions: 1 2 3 4 5 6 7 8 9 10 11 12 13 14 15 16 17

000
FTUS41 KPBZ 031735
TAFMGW
TAF
KMGW 031735Z 0318/0418 19011G18KT P6SM SCT040 BKN100
     FM040100 27010KT P6SM SCT040
     FM041100 26006KT P6SM BKN025=

USA.gov is the U.S. government's official web portal to all federal, state and local government web resources and services.